createdAt,value
2018-11-25T00:02:10.132Z,7.60
2018-11-25T00:04:38.564Z,8.13
2018-11-25T00:07:06.836Z,7.43
2018-11-25T00:09:34.984Z,8.37
2018-11-25T00:12:03.168Z,9.23
2018-11-25T00:14:31.332Z,7.80
2018-11-25T00:16:59.496Z,9.17
2018-11-25T00:19:27.671Z,8.63
2018-11-25T00:21:55.848Z,8.40
2018-11-25T00:24:24.015Z,9.23
2018-11-25T00:26:52.199Z,10.07
2018-11-25T00:29:20.376Z,9.60
2018-11-25T00:31:48.543Z,9.87
2018-11-25T00:34:16.735Z,11.07
2018-11-25T00:36:44.904Z,10.47
2018-11-25T00:39:13.156Z,11.17
2018-11-25T00:41:41.356Z,11.57
2018-11-25T00:44:09.524Z,11.27
2018-11-25T00:46:37.948Z,12.10
2018-11-25T00:49:06.297Z,12.50
2018-11-25T00:51:34.462Z,12.70
2018-11-25T00:54:02.647Z,11.50
2018-11-25T00:56:30.923Z,11.93
2018-11-25T00:58:59.076Z,12.57
2018-11-25T01:01:27.277Z,12.47
2018-11-25T01:03:55.729Z,10.93
2018-11-25T01:06:23.893Z,10.67
2018-11-25T01:08:52.065Z,12.53
2018-11-25T01:11:20.244Z,12.73
2018-11-25T01:13:48.415Z,10.77
2018-11-25T01:16:16.591Z,10.70
2018-11-25T01:18:44.755Z,10.07
2018-11-25T01:21:13.542Z,11.23
2018-11-25T01:23:41.711Z,10.30
2018-11-25T01:26:09.890Z,11.20
2018-11-25T01:28:38.055Z,11.57
2018-11-25T01:31:06.228Z,12.27
2018-11-25T01:33:34.408Z,10.13
2018-11-25T01:36:02.593Z,11.13
2018-11-25T01:38:30.798Z,10.97
2018-11-25T01:40:58.979Z,11.00
2018-11-25T01:43:27.158Z,11.07
2018-11-25T01:45:55.340Z,10.67
2018-11-25T01:48:23.522Z,10.83
2018-11-25T01:50:51.684Z,9.70
2018-11-25T01:53:19.852Z,10.50
2018-11-25T01:55:48.740Z,10.37
2018-11-25T01:58:16.887Z,10.57
2018-11-25T02:00:45.052Z,10.73
2018-11-25T02:03:13.229Z,12.47
2018-11-25T02:05:41.739Z,13.23
2018-11-25T02:08:09.908Z,13.03
2018-11-25T02:10:38.187Z,14.23
2018-11-25T02:13:06.347Z,14.50
2018-11-25T02:15:34.530Z,13.67
2018-11-25T02:18:02.716Z,12.90
2018-11-25T02:20:30.912Z,12.70
2018-11-25T02:22:59.111Z,12.40
2018-11-25T02:25:27.292Z,11.47
2018-11-25T02:27:55.482Z,10.93
2018-11-25T02:30:23.648Z,11.00
2018-11-25T02:32:51.812Z,11.30
2018-11-25T02:35:20.331Z,10.23
2018-11-25T02:37:48.506Z,10.27
2018-11-25T02:40:17.027Z,10.73
2018-11-25T02:42:45.259Z,11.80
2018-11-25T02:45:17.156Z,12.13
2018-11-25T02:47:45.612Z,13.03
2018-11-25T02:50:33.177Z,11.63
2018-11-25T02:53:05.631Z,11.27
2018-11-25T02:55:33.819Z,14.03
2018-11-25T02:58:01.984Z,13.33
2018-11-25T03:00:30.158Z,15.40
2018-11-25T03:02:58.591Z,12.93
2018-11-25T03:05:26.767Z,15.47
2018-11-25T03:07:55.088Z,16.53
2018-11-25T03:10:23.275Z,17.10
2018-11-25T03:12:51.519Z,15.07
2018-11-25T03:15:19.780Z,19.37
2018-11-25T03:17:47.936Z,17.57
2018-11-25T03:20:16.790Z,15.40
2018-11-25T03:22:44.963Z,18.83
2018-11-25T03:25:16.083Z,18.57
2018-11-25T03:27:44.271Z,17.93
2018-11-25T03:30:13.652Z,16.37
2018-11-25T03:32:42.015Z,16.30
2018-11-25T03:35:11.261Z,14.43
2018-11-25T03:37:39.424Z,15.50
2018-11-25T03:40:11.052Z,13.83
2018-11-25T03:42:39.258Z,15.73
2018-11-25T03:45:09.478Z,16.13
2018-11-25T03:47:37.655Z,17.20
2018-11-25T03:50:06.850Z,17.20
2018-11-25T03:52:35.292Z,15.23
2018-11-25T03:55:03.488Z,16.70
2018-11-25T03:57:31.652Z,15.20
2018-11-25T03:59:59.863Z,15.77
2018-11-25T04:02:28.028Z,15.87
2018-11-25T04:04:56.200Z,16.23
2018-11-25T04:07:24.394Z,18.27
2018-11-25T04:09:52.563Z,16.97
2018-11-25T04:12:20.752Z,16.87
2018-11-25T04:14:48.924Z,16.87
2018-11-25T04:17:17.444Z,16.60
2018-11-25T04:19:45.604Z,16.93
2018-11-25T04:22:13.771Z,15.97
2018-11-25T04:24:41.960Z,16.87
2018-11-25T04:27:10.149Z,15.20
2018-11-25T04:29:38.324Z,17.20
2018-11-25T04:32:06.500Z,15.53
2018-11-25T04:34:34.680Z,16.40
2018-11-25T04:37:02.867Z,16.13
2018-11-25T04:39:31.051Z,17.10
2018-11-25T04:41:59.215Z,16.10
2018-11-25T04:44:27.392Z,16.10
2018-11-25T04:46:55.936Z,15.20
2018-11-25T04:49:24.101Z,15.87
2018-11-25T04:51:52.313Z,16.30
2018-11-25T04:54:20.580Z,16.00
2018-11-25T04:56:48.780Z,15.07
2018-11-25T04:59:17.319Z,15.73
2018-11-25T05:01:45.488Z,15.97
2018-11-25T05:04:13.652Z,14.40
2018-11-25T05:06:41.836Z,13.87
2018-11-25T05:09:10.320Z,14.40
2018-11-25T05:11:38.493Z,16.83
2018-11-25T05:14:06.879Z,13.93
2018-11-25T05:16:35.064Z,14.33
2018-11-25T05:19:03.233Z,14.37
2018-11-25T05:21:31.429Z,15.07
2018-11-25T05:23:59.611Z,15.93
2018-11-25T05:26:27.780Z,15.57
2018-11-25T05:28:55.960Z,17.70
2018-11-25T05:31:24.155Z,16.33
2018-11-25T05:33:52.341Z,16.17
2018-11-25T05:36:20.573Z,18.47
2018-11-25T05:38:48.703Z,17.33
2018-11-25T05:41:16.891Z,16.77
2018-11-25T05:43:45.084Z,17.87
2018-11-25T05:46:13.326Z,18.17
2018-11-25T05:48:41.477Z,16.17
2018-11-25T05:51:09.656Z,16.27
2018-11-25T05:53:37.841Z,17.27
2018-11-25T05:56:06.044Z,17.47
2018-11-25T05:58:34.232Z,17.23
2018-11-25T06:01:02.400Z,17.50
2018-11-25T06:03:30.586Z,18.17
2018-11-25T06:05:58.769Z,17.27
2018-11-25T06:08:26.950Z,17.03
2018-11-25T06:10:55.132Z,16.33
2018-11-25T06:13:23.305Z,15.53
2018-11-25T06:15:51.503Z,14.77
2018-11-25T06:18:19.684Z,14.77
2018-11-25T06:20:47.962Z,16.17
2018-11-25T06:23:16.115Z,15.40
2018-11-25T06:25:44.293Z,16.10
2018-11-25T06:28:12.472Z,15.70
2018-11-25T06:30:40.653Z,15.10
2018-11-25T06:33:08.828Z,14.87
2018-11-25T06:35:37.107Z,15.63
2018-11-25T06:38:05.512Z,16.57
2018-11-25T06:40:33.680Z,16.27
2018-11-25T06:43:02.096Z,15.73
2018-11-25T06:45:30.843Z,14.33
2018-11-25T06:47:59.213Z,16.07
2018-11-25T06:50:27.427Z,17.47
2018-11-25T06:52:55.591Z,17.10
2018-11-25T06:55:23.765Z,16.80
2018-11-25T06:57:51.943Z,17.10
2018-11-25T07:00:22.153Z,17.17
2018-11-25T07:02:50.395Z,16.87
2018-11-25T07:05:18.564Z,16.67
2018-11-25T07:07:46.747Z,16.60
2018-11-25T07:10:18.879Z,16.70
2018-11-25T07:12:47.941Z,17.07
2018-11-25T07:15:17.023Z,16.80
2018-11-25T07:17:45.273Z,17.83
2018-11-25T07:20:14.869Z,19.23
2018-11-25T07:22:43.039Z,22.23
2018-11-25T07:25:13.405Z,20.03
2018-11-25T07:27:41.600Z,19.70
2018-11-25T07:30:14.990Z,20.03
2018-11-25T07:32:43.160Z,19.30
2018-11-25T07:35:11.407Z,18.97
2018-11-25T07:37:39.581Z,19.00
2018-11-25T07:40:12.188Z,18.23
2018-11-25T07:42:40.368Z,19.33
2018-11-25T07:45:10.237Z,19.70
2018-11-25T07:47:38.432Z,21.07
2018-11-25T07:50:08.184Z,22.47
2018-11-25T07:52:36.600Z,22.63
2018-11-25T07:55:09.938Z,20.73
2018-11-25T07:57:38.149Z,20.87
2018-11-25T08:00:10.307Z,20.60
2018-11-25T08:02:41.638Z,19.20
2018-11-25T08:05:08.351Z,19.53
2018-11-25T08:07:37.024Z,21.53
2018-11-25T08:10:08.656Z,20.23
2018-11-25T08:12:37.015Z,20.47
2018-11-25T08:15:06.800Z,21.17
2018-11-25T08:17:34.989Z,23.83
2018-11-25T08:20:03.164Z,23.20
2018-11-25T08:22:31.327Z,24.10
2018-11-25T08:24:59.519Z,26.73
2018-11-25T08:27:27.707Z,28.10
2018-11-25T08:29:56.076Z,27.13
2018-11-25T08:32:24.274Z,27.53
2018-11-25T08:34:52.436Z,25.27
2018-11-25T08:37:20.620Z,31.63
2018-11-25T08:39:48.793Z,32.47
2018-11-25T08:42:17.025Z,27.93
2018-11-25T08:44:45.235Z,27.43
2018-11-25T08:47:13.456Z,24.07
2018-11-25T08:49:41.640Z,25.93
2018-11-25T08:52:09.814Z,23.97
2018-11-25T08:54:38.040Z,23.33
2018-11-25T08:57:06.286Z,27.77
2018-11-25T08:59:34.581Z,44.53
2018-11-25T09:02:02.840Z,43.37
2018-11-25T09:04:31.050Z,40.83
2018-11-25T09:06:59.224Z,41.37
2018-11-25T09:09:27.392Z,36.70
2018-11-25T09:11:55.955Z,33.87
2018-11-25T09:14:24.203Z,35.30
2018-11-25T09:16:52.393Z,32.10
2018-11-25T09:19:20.632Z,32.77
2018-11-25T09:21:48.827Z,29.57
2018-11-25T09:24:17.016Z,32.23
2018-11-25T09:26:45.204Z,32.07
2018-11-25T09:29:13.395Z,31.87
2018-11-25T09:31:41.569Z,29.93
2018-11-25T09:34:09.777Z,29.23
2018-11-25T09:36:37.979Z,31.00
2018-11-25T09:39:08.287Z,31.03
2018-11-25T09:41:36.475Z,29.83
2018-11-25T09:44:04.757Z,25.83
2018-11-25T09:46:33.029Z,25.67
2018-11-25T09:49:01.246Z,22.23
2018-11-25T09:51:29.439Z,20.40
2018-11-25T09:53:57.728Z,17.60
2018-11-25T09:56:25.907Z,17.13
2018-11-25T09:58:54.092Z,17.63
2018-11-25T10:01:22.311Z,17.37
2018-11-25T10:03:50.994Z,18.50
2018-11-25T10:06:19.152Z,17.23
2018-11-25T10:08:47.376Z,17.23
2018-11-25T10:11:15.559Z,17.00
2018-11-25T10:13:43.761Z,17.30
2018-11-25T10:16:11.957Z,15.43
2018-11-25T10:18:40.131Z,17.07
2018-11-25T10:21:08.332Z,16.17
2018-11-25T10:23:36.520Z,17.17
2018-11-25T10:26:04.860Z,16.53
2018-11-25T10:28:33.044Z,16.87
2018-11-25T10:31:01.218Z,16.37
2018-11-25T10:33:29.500Z,15.37
2018-11-25T10:35:57.696Z,13.27
2018-11-25T10:38:26.012Z,12.80
2018-11-25T10:40:54.910Z,13.90
2018-11-25T10:43:23.145Z,13.57
2018-11-25T10:45:51.340Z,12.93
2018-11-25T10:48:19.543Z,12.43
2018-11-25T10:50:51.231Z,12.70
2018-11-25T10:53:15.935Z,12.20
2018-11-25T10:55:44.471Z,11.33
2018-11-25T10:58:13.671Z,11.70
2018-11-25T11:00:47.404Z,11.17
2018-11-25T11:03:20.859Z,10.47
2018-11-25T11:05:54.080Z,10.00
2018-11-25T11:08:22.284Z,9.93
2018-11-25T11:10:50.459Z,10.30
2018-11-25T11:13:18.712Z,11.10
2018-11-25T11:15:46.950Z,9.20
2018-11-25T11:18:15.155Z,9.73
2018-11-25T11:20:43.327Z,9.13
2018-11-25T11:23:11.518Z,9.40
2018-11-25T11:25:39.700Z,9.00
2018-11-25T11:28:07.875Z,9.50
2018-11-25T11:30:36.102Z,9.00
2018-11-25T11:33:04.317Z,9.60
2018-11-25T11:35:32.491Z,9.63
2018-11-25T11:38:00.661Z,9.07
2018-11-25T11:40:28.871Z,9.37
2018-11-25T11:42:57.070Z,8.67
2018-11-25T11:45:25.256Z,7.80
2018-11-25T11:47:53.512Z,9.43
2018-11-25T11:50:22.124Z,9.60
2018-11-25T11:52:50.312Z,9.77
2018-11-25T11:55:18.707Z,8.70
2018-11-25T11:57:47.529Z,8.73
2018-11-25T12:00:18.208Z,9.33
2018-11-25T12:02:46.391Z,9.33
2018-11-25T12:05:14.571Z,9.60
2018-11-25T12:07:42.813Z,8.17
2018-11-25T12:10:13.153Z,8.20
2018-11-25T12:12:41.320Z,7.83
2018-11-25T12:15:17.267Z,8.17
2018-11-25T12:17:45.461Z,8.87
2018-11-25T12:20:13.661Z,8.13
2018-11-25T12:22:42.250Z,8.90
2018-11-25T12:25:12.774Z,8.57
2018-11-25T12:27:40.952Z,8.90
2018-11-25T12:30:10.660Z,8.37
2018-11-25T12:32:38.948Z,7.53
2018-11-25T12:35:07.884Z,7.37
2018-11-25T12:37:36.435Z,6.73
2018-11-25T12:40:06.088Z,7.17
2018-11-25T12:42:34.311Z,7.40
2018-11-25T12:45:03.115Z,7.30
2018-11-25T12:47:31.288Z,6.93
2018-11-25T12:49:59.469Z,7.30
2018-11-25T12:52:27.633Z,6.77
2018-11-25T12:54:55.820Z,7.77
2018-11-25T12:57:24.027Z,7.73
2018-11-25T12:59:52.276Z,8.23
2018-11-25T13:02:20.515Z,7.27
2018-11-25T13:04:48.754Z,7.77
2018-11-25T13:07:16.923Z,7.53
2018-11-25T13:09:45.157Z,8.13
2018-11-25T13:12:13.331Z,8.23
2018-11-25T13:14:41.536Z,7.13
2018-11-25T13:17:09.759Z,8.00
2018-11-25T13:19:37.955Z,8.80
2018-11-25T13:22:06.263Z,8.17
2018-11-25T13:24:34.443Z,9.03
2018-11-25T13:27:02.640Z,8.63
2018-11-25T13:29:30.873Z,7.70
2018-11-25T13:31:59.108Z,7.57
2018-11-25T13:34:27.300Z,8.60
2018-11-25T13:36:55.481Z,8.70
2018-11-25T13:39:23.671Z,8.27
2018-11-25T13:41:51.931Z,7.97
2018-11-25T13:44:20.119Z,7.90
2018-11-25T13:46:48.298Z,8.20
2018-11-25T13:49:16.555Z,8.20
2018-11-25T13:51:44.736Z,7.83
2018-11-25T13:54:12.924Z,7.77
2018-11-25T13:56:41.204Z,7.90
2018-11-25T13:59:09.429Z,8.27
2018-11-25T14:01:38.196Z,8.03
2018-11-25T14:04:06.646Z,7.90
2018-11-25T14:06:34.906Z,7.90
2018-11-25T14:09:03.112Z,8.07
2018-11-25T14:11:31.337Z,8.07
2018-11-25T14:13:59.535Z,8.60
2018-11-25T14:16:27.713Z,8.93
2018-11-25T14:18:55.953Z,8.57
2018-11-25T14:21:24.166Z,9.20
2018-11-25T14:23:52.596Z,10.33
2018-11-25T14:26:23.490Z,8.13
2018-11-25T14:28:51.969Z,8.50
2018-11-25T14:31:20.176Z,9.57
2018-11-25T14:33:48.367Z,9.30
2018-11-25T14:36:16.573Z,9.03
2018-11-25T14:38:45.324Z,9.17
2018-11-25T14:41:13.248Z,8.17
2018-11-25T14:43:41.441Z,8.37
2018-11-25T14:46:09.620Z,8.63
2018-11-25T14:48:38.071Z,7.40
2018-11-25T14:51:06.321Z,8.03
2018-11-25T14:53:34.508Z,7.83
2018-11-25T14:56:02.705Z,7.73
2018-11-25T14:58:31.485Z,7.43
2018-11-25T15:00:59.694Z,7.07
2018-11-25T15:03:28.029Z,6.83
2018-11-25T15:05:56.291Z,7.00
2018-11-25T15:08:26.338Z,7.97
2018-11-25T15:10:54.479Z,7.47
2018-11-25T15:13:22.650Z,8.03
2018-11-25T15:15:50.884Z,9.13
2018-11-25T15:18:19.061Z,8.37
2018-11-25T15:20:47.225Z,7.50
2018-11-25T15:23:16.259Z,8.30
2018-11-25T15:25:47.023Z,7.97
2018-11-25T15:28:15.196Z,9.00
2018-11-25T15:30:43.379Z,8.20
2018-11-25T15:33:11.596Z,9.33
2018-11-25T15:35:39.824Z,7.20
2018-11-25T15:38:08.257Z,7.47
2018-11-25T15:40:37.115Z,8.83
2018-11-25T15:43:06.096Z,8.77
2018-11-25T15:45:34.548Z,10.07
2018-11-25T15:48:11.365Z,10.07
2018-11-25T15:50:39.578Z,9.80
2018-11-25T15:53:08.808Z,8.53
2018-11-25T15:55:37.076Z,9.00
2018-11-25T15:58:05.923Z,8.77
2018-11-25T16:00:34.135Z,8.03
2018-11-25T16:03:02.316Z,7.40
2018-11-25T16:05:32.143Z,8.83
2018-11-25T16:08:00.300Z,8.40
2018-11-25T16:10:28.495Z,8.87
2018-11-25T16:12:56.712Z,7.47
2018-11-25T16:15:26.396Z,8.50
2018-11-25T16:17:54.608Z,8.73
2018-11-25T16:20:24.879Z,8.10
2018-11-25T16:22:54.704Z,8.60
2018-11-25T16:25:24.619Z,8.87
2018-11-25T16:27:55.048Z,8.70
2018-11-25T16:30:23.228Z,8.73
2018-11-25T16:32:51.437Z,10.60
2018-11-25T16:35:19.643Z,12.03
2018-11-25T16:37:47.845Z,12.40
2018-11-25T16:40:16.727Z,13.20
2018-11-25T16:42:45.291Z,13.63
2018-11-25T16:45:14.804Z,13.13
2018-11-25T16:47:43.186Z,12.27
2018-11-25T16:50:13.892Z,11.67
2018-11-25T16:52:42.091Z,10.37
2018-11-25T16:55:11.308Z,11.00
2018-11-25T16:57:39.794Z,11.00
2018-11-25T17:00:12.350Z,10.50
2018-11-25T17:02:40.551Z,10.90
2018-11-25T17:05:12.396Z,11.63
2018-11-25T17:07:40.941Z,11.47
2018-11-25T17:10:10.273Z,11.90
2018-11-25T17:12:38.480Z,12.93
2018-11-25T17:15:11.245Z,12.00
2018-11-25T17:17:39.692Z,12.30
2018-11-25T17:20:08.536Z,15.37
2018-11-25T17:22:36.841Z,13.27
2018-11-25T17:25:07.097Z,13.83
2018-11-25T17:27:35.312Z,22.63
2018-11-25T17:30:04.633Z,16.43
2018-11-25T17:32:32.908Z,14.43
2018-11-25T17:35:01.068Z,16.07
2018-11-25T17:37:29.324Z,16.20
2018-11-25T17:39:57.551Z,15.17
2018-11-25T17:42:25.911Z,16.93
2018-11-25T17:44:54.099Z,13.90
2018-11-25T17:47:22.487Z,14.10
2018-11-25T17:49:50.739Z,13.33
2018-11-25T17:52:19.332Z,13.17
2018-11-25T17:54:47.519Z,12.93
2018-11-25T17:57:15.692Z,13.07
2018-11-25T17:59:43.956Z,11.23
2018-11-25T18:02:12.147Z,11.43
2018-11-25T18:04:40.340Z,11.40
2018-11-25T18:07:08.524Z,11.83
2018-11-25T18:09:36.708Z,11.50
2018-11-25T18:12:04.980Z,11.93
2018-11-25T18:14:33.617Z,12.03
2018-11-25T18:17:01.826Z,11.33
2018-11-25T18:19:30.016Z,12.30
2018-11-25T18:22:01.316Z,11.83
2018-11-25T18:24:29.539Z,11.97
2018-11-25T18:26:57.891Z,12.93
2018-11-25T18:29:26.078Z,12.83
2018-11-25T18:31:54.264Z,11.97
2018-11-25T18:34:22.455Z,11.53
2018-11-25T18:36:50.648Z,11.53
2018-11-25T18:39:18.943Z,11.50
2018-11-25T18:41:47.136Z,12.17
2018-11-25T18:44:15.404Z,11.00
2018-11-25T18:46:47.618Z,12.47
2018-11-25T18:49:11.822Z,11.40
2018-11-25T18:51:39.996Z,10.60
2018-11-25T18:54:09.301Z,10.47
2018-11-25T18:56:37.490Z,10.37
2018-11-25T18:59:06.193Z,11.00
2018-11-25T19:01:52.604Z,9.50
2018-11-25T19:04:21.160Z,10.70
2018-11-25T19:06:49.731Z,12.20
2018-11-25T19:09:17.920Z,11.10
2018-11-25T19:11:46.106Z,11.57
2018-11-25T19:14:14.296Z,10.90
2018-11-25T19:16:42.473Z,9.90
2018-11-25T19:19:10.672Z,10.63
2018-11-25T19:21:39.181Z,11.40
2018-11-25T19:24:07.372Z,11.50
2018-11-25T19:26:35.580Z,10.50
2018-11-25T19:29:03.955Z,11.07
2018-11-25T19:31:32.124Z,12.67
2018-11-25T19:34:00.305Z,11.07
2018-11-25T19:36:28.504Z,11.77
2018-11-25T19:38:56.721Z,10.77
2018-11-25T19:41:24.952Z,11.57
2018-11-25T19:43:53.121Z,11.70
2018-11-25T19:46:21.347Z,10.67
2018-11-25T19:48:49.528Z,11.70
2018-11-25T19:51:17.873Z,10.77
2018-11-25T19:53:45.914Z,11.90
2018-11-25T19:56:14.185Z,11.47
2018-11-25T19:58:42.684Z,11.83
2018-11-25T20:01:10.924Z,11.20
2018-11-25T20:03:39.144Z,11.77
2018-11-25T20:06:07.375Z,10.27
2018-11-25T20:08:35.596Z,10.63
2018-11-25T20:11:03.827Z,10.50
2018-11-25T20:13:32.055Z,10.57
2018-11-25T20:16:05.610Z,11.93
2018-11-25T20:18:33.916Z,11.57
2018-11-25T20:21:07.641Z,11.13
2018-11-25T20:23:36.273Z,10.00
2018-11-25T20:26:04.595Z,11.20
2018-11-25T20:28:32.855Z,11.20
2018-11-25T20:31:01.061Z,11.63
2018-11-25T20:33:34.751Z,11.97
2018-11-25T20:36:02.964Z,11.20
2018-11-25T20:38:36.535Z,10.47
2018-11-25T20:41:04.889Z,10.27
2018-11-25T20:43:33.330Z,11.50
2018-11-25T20:46:06.832Z,12.00
2018-11-25T20:48:35.021Z,11.50
2018-11-25T20:51:03.539Z,11.53
2018-11-25T20:53:37.237Z,11.77
2018-11-25T20:56:05.455Z,11.23
2018-11-25T20:58:33.660Z,10.87
2018-11-25T21:01:01.844Z,12.03
2018-11-25T21:03:30.040Z,11.87
2018-11-25T21:05:58.224Z,11.10
2018-11-25T21:08:27.514Z,10.90
2018-11-25T21:10:55.279Z,11.03
2018-11-25T21:13:23.472Z,11.33
2018-11-25T21:15:52.044Z,11.73
2018-11-25T21:18:20.224Z,11.83
2018-11-25T21:20:51.340Z,11.20
2018-11-25T21:23:17.416Z,12.27
2018-11-25T21:25:44.792Z,10.80
2018-11-25T21:28:12.976Z,10.67
2018-11-25T21:30:41.169Z,10.97
2018-11-25T21:33:09.355Z,11.23
2018-11-25T21:35:37.559Z,12.60
2018-11-25T21:38:05.748Z,11.50
2018-11-25T21:40:33.990Z,12.13
2018-11-25T21:43:02.169Z,11.57
2018-11-25T21:45:30.364Z,10.60
2018-11-25T21:47:58.596Z,11.60
2018-11-25T21:50:27.818Z,11.03
2018-11-25T21:52:56.007Z,10.80
2018-11-25T21:55:24.583Z,11.97
2018-11-25T21:57:52.792Z,11.27
2018-11-25T22:00:25.303Z,10.63
2018-11-25T22:02:53.488Z,10.97
2018-11-25T22:05:24.802Z,11.33
2018-11-25T22:07:49.888Z,10.23
2018-11-25T22:10:19.988Z,11.10
2018-11-25T22:12:48.394Z,9.73
2018-11-25T22:15:18.691Z,10.73
2018-11-25T22:17:46.895Z,10.40
2018-11-25T22:20:15.669Z,10.00
2018-11-25T22:22:43.905Z,10.23
2018-11-25T22:25:14.130Z,9.97
2018-11-25T22:27:42.377Z,10.07
2018-11-25T22:30:14.493Z,9.43
2018-11-25T22:32:42.699Z,9.83
2018-11-25T22:35:12.866Z,9.83
2018-11-25T22:37:42.052Z,9.93
2018-11-25T22:40:10.640Z,9.67
2018-11-25T22:42:39.459Z,11.10
2018-11-25T22:45:09.871Z,10.13
2018-11-25T22:47:38.227Z,9.40
2018-11-25T22:50:08.079Z,9.77
2018-11-25T22:52:36.267Z,9.37
2018-11-25T22:55:05.028Z,8.43
2018-11-25T22:57:33.447Z,9.83
2018-11-25T23:00:01.631Z,9.30
2018-11-25T23:02:29.813Z,11.17
2018-11-25T23:05:09.288Z,10.43
2018-11-25T23:07:37.464Z,10.00
2018-11-25T23:10:05.636Z,9.80
2018-11-25T23:12:33.825Z,10.10
2018-11-25T23:15:02.022Z,12.07
2018-11-25T23:17:30.188Z,9.23
2018-11-25T23:19:58.376Z,11.03
2018-11-25T23:22:26.883Z,10.63
2018-11-25T23:24:55.057Z,10.00
2018-11-25T23:27:23.214Z,9.60
2018-11-25T23:29:51.396Z,12.10
2018-11-25T23:32:19.574Z,13.20
2018-11-25T23:34:47.745Z,11.17
2018-11-25T23:37:15.922Z,10.87
2018-11-25T23:39:44.104Z,13.53
2018-11-25T23:42:12.370Z,11.20
2018-11-25T23:44:40.563Z,12.33
2018-11-25T23:47:08.964Z,12.70
2018-11-25T23:49:37.119Z,11.20
2018-11-25T23:52:05.300Z,12.83
2018-11-25T23:54:33.763Z,11.57
2018-11-25T23:57:01.928Z,13.50
2018-11-25T23:59:30.202Z,11.87
